Stolt Effort — ZCSP6 — position and weather

sailwx.info

Track history (hours):
 
Tides and Currents Weather Stations Pressure Air Temp Water Temp Dewpoint Dewpoint Depression Visibility Wind Speed Wind Dir Waves Ship Positions

Stolt Effort

Last reported at 2016-Aug-24 11:32 UTC. Time now 2016-Aug-25 18:27 UTC.
Position N 29°46' W 095°05'.

Length 176 m; draft 8.8 m.

Type: Ship (hazmat cat B). MMSI: 319445000.

Date/timePositionNaut miles runAvg speedWind from/ knotsBaromVisibWave heightAir tempDewpointWater temp
2016-Aug-24 11:32N 29°46' W 095°05'9 9.5
2016-Aug-24 10:33N 29°39' W 094°58'1111.2
2016-Aug-24 09:33N 29°29' W 094°52'8 0.7
2016-Aug-23 22:22N 29°22' W 094°54'0 0.0
2016-Aug-22 22:25N 29°22' W 094°53'16 1.4
2016-Aug-22 11:23N 29°14' W 094°38'  
2016-Aug-17 07:17N 25°43' W 079°30'1013.4
2016-Aug-17 06:33N 25°53' W 079°29'1313.5
2016-Aug-17 05:33N 26°06' W 079°27'33912.5
2016-Aug-16 02:29N 31°43' W 080°11'2411.1
2016-Aug-16 00:18N 31°58' W 080°33'912.4
2016-Aug-15 23:33N 31°58' W 080°44'1211.9
2016-Aug-15 22:33N 32°04' W 080°57'7 7.5
2016-Aug-15 21:33N 32°05' W 081°06'2 1.6
2016-Aug-15 20:33N 32°06' W 081°07'0 0.0
2016-Aug-15 19:32N 32°06' W 081°07'0 0.0
2016-Aug-15 18:32N 32°06' W 081°07'0 0.0
2016-Aug-15 17:32N 32°06' W 081°07'0 0.0
2016-Aug-15 16:32N 32°06' W 081°07'0 0.0
2016-Aug-15 15:32N 32°06' W 081°07'0 0.0
2016-Aug-15 14:32N 32°06' W 081°07'0 0.0
2016-Aug-15 13:32N 32°06' W 081°07'0 0.0
2016-Aug-15 12:32N 32°06' W 081°07'0 0.0
2016-Aug-15 11:20N 32°06' W 081°07'0 0.0
2016-Aug-15 10:20N 32°06' W 081°07'0 0.0
2016-Aug-15 09:32N 32°06' W 081°07'0 0.0
2016-Aug-15 08:32N 32°06' W 081°07'0 0.0
2016-Aug-15 07:32N 32°06' W 081°07'0 0.0
2016-Aug-15 06:32N 32°06' W 081°07'0 0.0
2016-Aug-15 04:32N 32°06' W 081°07'0 0.0
2016-Aug-15 03:32N 32°06' W 081°07'0 0.0
2016-Aug-15 02:32N 32°06' W 081°07'0 0.0
2016-Aug-15 01:32N 32°06' W 081°07'0 0.0
2016-Aug-15 00:32N 32°06' W 081°07'0 0.2
2016-Aug-14 23:33N 32°06' W 081°07'6 6.0
2016-Aug-14 22:33N 32°06' W 080°60'1212.2
2016-Aug-14 21:33N 31°60' W 080°47'1212.3
2016-Aug-14 20:33N 31°59' W 080°33'1413.8
2016-Aug-14 19:33N 32°04' W 080°17'  
Track history (hours):
 
Tides and Currents Weather Stations Pressure Air Temp Water Temp Dewpoint Dewpoint Depression Visibility Wind Speed Wind Dir Waves Ship Positions

Stolt Effort

Last reported at 2016-Aug-24 11:32 UTC. Time now 2016-Aug-25 18:27 UTC.
Position N 29°46' W 095°05'.

Length 176 m; draft 8.8 m.

Type: Ship (hazmat cat B). MMSI: 319445000.

Date/timePositionNaut miles runAvg speedWind from/ knotsBaromVisibWave heightAir tempDewpointWater temp
2016-Aug-24 11:32N 29°46' W 095°05'9 9.5
2016-Aug-24 10:33N 29°39' W 094°58'1111.2
2016-Aug-24 09:33N 29°29' W 094°52'8 0.7
2016-Aug-23 22:22N 29°22' W 094°54'0 0.0
2016-Aug-22 22:25N 29°22' W 094°53'16 1.4
2016-Aug-22 11:23N 29°14' W 094°38'  
2016-Aug-17 07:17N 25°43' W 079°30'1013.4
2016-Aug-17 06:33N 25°53' W 079°29'1313.5
2016-Aug-17 05:33N 26°06' W 079°27'33912.5
2016-Aug-16 02:29N 31°43' W 080°11'2411.1
2016-Aug-16 00:18N 31°58' W 080°33'912.4
2016-Aug-15 23:33N 31°58' W 080°44'1211.9
2016-Aug-15 22:33N 32°04' W 080°57'7 7.5
2016-Aug-15 21:33N 32°05' W 081°06'2 1.6
2016-Aug-15 20:33N 32°06' W 081°07'0 0.0
2016-Aug-15 19:32N 32°06' W 081°07'0 0.0
2016-Aug-15 18:32N 32°06' W 081°07'0 0.0
2016-Aug-15 17:32N 32°06' W 081°07'0 0.0
2016-Aug-15 16:32N 32°06' W 081°07'0 0.0
2016-Aug-15 15:32N 32°06' W 081°07'0 0.0
2016-Aug-15 14:32N 32°06' W 081°07'0 0.0
2016-Aug-15 13:32N 32°06' W 081°07'0 0.0
2016-Aug-15 12:32N 32°06' W 081°07'0 0.0
2016-Aug-15 11:20N 32°06' W 081°07'0 0.0
2016-Aug-15 10:20N 32°06' W 081°07'0 0.0
2016-Aug-15 09:32N 32°06' W 081°07'0 0.0
2016-Aug-15 08:32N 32°06' W 081°07'0 0.0
2016-Aug-15 07:32N 32°06' W 081°07'0 0.0
2016-Aug-15 06:32N 32°06' W 081°07'0 0.0
2016-Aug-15 04:32N 32°06' W 081°07'0 0.0
2016-Aug-15 03:32N 32°06' W 081°07'0 0.0
2016-Aug-15 02:32N 32°06' W 081°07'0 0.0
2016-Aug-15 01:32N 32°06' W 081°07'0 0.0
2016-Aug-15 00:32N 32°06' W 081°07'0 0.2
2016-Aug-14 23:33N 32°06' W 081°07'6 6.0
2016-Aug-14 22:33N 32°06' W 080°60'1212.2
2016-Aug-14 21:33N 31°60' W 080°47'1212.3
2016-Aug-14 20:33N 31°59' W 080°33'1413.8
2016-Aug-14 19:33N 32°04' W 080°17'  

Dump ship's entire track history